createdAt,value
2023-04-06T00:02:55.418Z,1.40
2023-04-06T00:05:58.522Z,1.42
2023-04-06T00:09:01.700Z,1.43
2023-04-06T00:12:04.885Z,1.44
2023-04-06T00:15:08.458Z,1.43
2023-04-06T00:18:11.760Z,1.43
2023-04-06T00:21:15.683Z,1.43
2023-04-06T00:24:18.727Z,1.44
2023-04-06T00:27:21.812Z,1.45
2023-04-06T00:30:24.906Z,1.48
2023-04-06T00:33:28.137Z,1.49
2023-04-06T00:36:31.375Z,1.48
2023-04-06T00:39:34.361Z,1.49
2023-04-06T00:42:37.773Z,1.49
2023-04-06T00:45:42.270Z,1.50
2023-04-06T00:48:45.488Z,1.51
2023-04-06T00:51:48.602Z,1.52
2023-04-06T00:54:51.904Z,1.52
2023-04-06T00:57:59.506Z,1.52
2023-04-06T01:01:03.223Z,1.51
2023-04-06T01:04:06.339Z,1.48
2023-04-06T01:07:14.531Z,1.46
2023-04-06T01:10:27.606Z,1.43
2023-04-06T01:13:47.072Z,1.42
2023-04-06T01:17:05.277Z,1.41
2023-04-06T01:20:10.906Z,1.40
2023-04-06T01:23:14.659Z,1.40
2023-04-06T01:26:22.214Z,1.39
2023-04-06T01:29:27.482Z,1.37
2023-04-06T01:32:31.253Z,1.34
2023-04-06T01:35:34.562Z,1.34
2023-04-06T01:38:49.646Z,1.35
2023-04-06T01:41:53.326Z,1.35
2023-04-06T01:44:57.368Z,1.32
2023-04-06T01:48:00.862Z,1.30
2023-04-06T01:51:05.069Z,1.28
2023-04-06T01:54:10.367Z,1.26
2023-04-06T01:57:30.655Z,1.25
2023-04-06T02:00:42.620Z,1.23
2023-04-06T02:03:46.321Z,1.20
2023-04-06T02:06:49.572Z,1.18
2023-04-06T02:09:56.583Z,1.15
2023-04-06T02:13:04.596Z,1.13
2023-04-06T02:16:08.033Z,1.11
2023-04-06T02:19:11.062Z,1.12
2023-04-06T02:22:14.108Z,1.12
2023-04-06T02:25:17.282Z,1.12
2023-04-06T02:28:20.399Z,1.13
2023-04-06T02:31:23.560Z,1.15
2023-04-06T02:34:27.070Z,1.15
2023-04-06T02:37:30.447Z,1.13
2023-04-06T02:40:34.935Z,1.10
2023-04-06T02:43:45.408Z,1.09
2023-04-06T02:46:53.855Z,1.07
2023-04-06T02:49:57.966Z,1.07
2023-04-06T02:53:01.189Z,1.05
2023-04-06T02:56:04.457Z,1.00
2023-04-06T02:59:15.647Z,0.97
2023-04-06T03:02:25.195Z,0.93
2023-04-06T03:05:29.895Z,0.90
2023-04-06T03:08:33.011Z,0.87
2023-04-06T03:11:36.188Z,0.81
2023-04-06T03:14:39.254Z,0.78
2023-04-06T03:17:42.599Z,0.75
2023-04-06T03:20:50.475Z,0.72
2023-04-06T03:23:54.211Z,0.69
2023-04-06T03:26:57.555Z,0.66
2023-04-06T03:30:01.279Z,0.61
2023-04-06T03:33:08.099Z,0.59
2023-04-06T03:36:15.787Z,0.55
2023-04-06T03:39:19.815Z,0.54
2023-04-06T03:42:22.813Z,0.51
2023-04-06T03:45:29.360Z,0.49
2023-04-06T03:48:32.511Z,0.46
2023-04-06T03:51:38.981Z,0.40
2023-04-06T03:54:42.094Z,0.37
2023-04-06T03:57:47.282Z,0.35
2023-04-06T04:00:50.501Z,0.34
2023-04-06T04:03:54.495Z,0.33
2023-04-06T04:06:57.602Z,0.29
2023-04-06T04:10:00.741Z,0.26
2023-04-06T04:13:03.921Z,0.24
2023-04-06T04:16:07.515Z,0.22
2023-04-06T04:19:12.214Z,0.19
2023-04-06T04:22:15.303Z,0.18
2023-04-06T04:25:18.629Z,0.17
2023-04-06T04:28:23.827Z,0.14
2023-04-06T04:31:29.230Z,0.12
2023-04-06T04:34:34.622Z,0.12
2023-04-06T04:37:37.779Z,0.10
2023-04-06T04:40:41.014Z,0.10
2023-04-06T04:43:45.802Z,0.11
2023-04-06T04:46:49.702Z,0.13
2023-04-06T04:49:53.901Z,0.15
2023-04-06T04:52:59.050Z,0.16
2023-04-06T04:56:03.715Z,0.17
2023-04-06T04:59:07.451Z,0.19
2023-04-06T05:02:12.792Z,0.24
2023-04-06T05:05:23.429Z,0.28
2023-04-06T05:08:26.945Z,0.32
2023-04-06T05:11:30.163Z,0.36
2023-04-06T05:14:36.132Z,0.41
2023-04-06T05:17:40.131Z,0.46
2023-04-06T05:20:44.284Z,0.53
2023-04-06T05:23:48.265Z,0.59
2023-04-06T05:26:51.564Z,0.69
2023-04-06T05:29:58.246Z,0.78
2023-04-06T05:33:02.728Z,0.89
2023-04-06T05:36:14.843Z,0.98
2023-04-06T05:39:19.996Z,1.07
2023-04-06T05:42:28.091Z,1.16
2023-04-06T05:45:36.023Z,1.24
2023-04-06T05:48:41.719Z,1.34
2023-04-06T05:51:45.817Z,1.43
2023-04-06T05:54:50.029Z,1.52
2023-04-06T05:57:53.266Z,1.58
2023-04-06T06:01:04.668Z,1.62
2023-04-06T06:04:14.270Z,1.66
2023-04-06T06:07:17.786Z,1.70
2023-04-06T06:10:27.034Z,1.76
2023-04-06T06:13:30.317Z,1.82
2023-04-06T06:16:34.000Z,1.89
2023-04-06T06:19:37.479Z,1.98
2023-04-06T06:22:42.476Z,2.06
2023-04-06T06:25:48.777Z,2.16
2023-04-06T06:28:52.181Z,2.24
2023-04-06T06:31:55.425Z,2.34
2023-04-06T06:34:59.585Z,2.44
2023-04-06T06:38:04.636Z,2.51
2023-04-06T06:41:08.847Z,2.57
2023-04-06T06:44:12.558Z,2.65
2023-04-06T06:47:16.538Z,2.72
2023-04-06T06:50:20.941Z,2.78
2023-04-06T06:53:25.057Z,2.86
2023-04-06T06:56:29.019Z,2.90
2023-04-06T06:59:32.619Z,2.94
2023-04-06T07:02:39.417Z,2.97
2023-04-06T07:05:54.293Z,3.03
2023-04-06T07:08:58.216Z,3.08
2023-04-06T07:12:02.022Z,3.15
2023-04-06T07:15:06.158Z,3.20
2023-04-06T07:18:10.499Z,3.24
2023-04-06T07:21:14.034Z,3.32
2023-04-06T07:24:17.181Z,3.40
2023-04-06T07:27:20.729Z,3.50
2023-04-06T07:30:26.123Z,3.58
2023-04-06T07:33:31.024Z,3.66
2023-04-06T07:36:34.675Z,3.77
2023-04-06T07:39:38.019Z,3.87
2023-04-06T07:42:41.426Z,3.97
2023-04-06T07:45:45.069Z,4.13
2023-04-06T07:48:48.373Z,4.32
2023-04-06T07:51:51.450Z,4.48
2023-04-06T07:54:54.597Z,4.64
2023-04-06T07:57:57.698Z,4.83
2023-04-06T08:01:00.794Z,4.88
2023-04-06T08:04:04.069Z,4.92
2023-04-06T08:07:07.877Z,4.93
2023-04-06T08:10:11.489Z,4.95
2023-04-06T08:13:17.371Z,4.98
2023-04-06T08:16:20.873Z,5.06
2023-04-06T08:19:24.110Z,5.15
2023-04-06T08:22:27.547Z,5.16
2023-04-06T08:25:30.786Z,5.15
2023-04-06T08:28:35.463Z,5.16
2023-04-06T08:31:38.716Z,5.21
2023-04-06T08:34:42.085Z,5.18
2023-04-06T08:37:45.448Z,5.15
2023-04-06T08:40:50.876Z,5.15
2023-04-06T08:43:57.399Z,5.13
2023-04-06T08:47:01.531Z,5.13
2023-04-06T08:50:05.804Z,5.11
2023-04-06T08:53:09.404Z,5.06
2023-04-06T08:56:13.248Z,5.04
2023-04-06T08:59:16.883Z,5.00
2023-04-06T09:02:22.074Z,4.97
2023-04-06T09:05:30.771Z,4.92
2023-04-06T09:08:43.126Z,4.90
2023-04-06T09:11:53.238Z,4.91
2023-04-06T09:14:58.210Z,4.95
2023-04-06T09:18:06.763Z,4.95
2023-04-06T09:21:14.055Z,4.95
2023-04-06T09:24:23.950Z,5.01
2023-04-06T09:27:36.029Z,5.13
2023-04-06T09:30:49.420Z,5.33
2023-04-06T09:33:53.707Z,5.55
2023-04-06T09:36:56.967Z,5.59
2023-04-06T09:40:06.480Z,5.65
2023-04-06T09:43:10.985Z,5.69
2023-04-06T09:46:15.333Z,5.71
2023-04-06T09:49:24.227Z,5.77
2023-04-06T09:52:32.231Z,5.78
2023-04-06T09:55:43.171Z,5.79
2023-04-06T09:58:51.377Z,5.94
2023-04-06T10:01:59.472Z,6.10
2023-04-06T10:05:17.695Z,6.23
2023-04-06T10:08:27.297Z,6.29
2023-04-06T10:11:31.357Z,6.39
2023-04-06T10:14:38.768Z,6.54
2023-04-06T10:17:42.332Z,6.67
2023-04-06T10:20:57.179Z,6.79
2023-04-06T10:24:03.278Z,7.02
2023-04-06T10:27:08.096Z,7.36
2023-04-06T10:30:11.758Z,7.59
2023-04-06T10:33:20.066Z,7.66
2023-04-06T10:36:26.614Z,7.70
2023-04-06T10:39:29.815Z,7.67
2023-04-06T10:42:42.213Z,7.58
2023-04-06T10:45:45.373Z,7.45
2023-04-06T10:48:48.716Z,7.33
2023-04-06T10:51:55.966Z,7.21
2023-04-06T10:54:59.563Z,7.14
2023-04-06T10:58:02.687Z,7.07
2023-04-06T11:01:05.836Z,7.00
2023-04-06T11:04:10.898Z,6.95
2023-04-06T11:07:27.863Z,6.83
2023-04-06T11:10:31.339Z,6.72
2023-04-06T11:13:46.160Z,6.63
2023-04-06T11:16:51.170Z,6.52
2023-04-06T11:19:55.131Z,6.44
2023-04-06T11:23:00.147Z,6.37
2023-04-06T11:26:03.615Z,6.33
2023-04-06T11:29:07.493Z,6.28
2023-04-06T11:32:10.585Z,6.24
2023-04-06T11:35:25.976Z,6.18
2023-04-06T11:38:29.209Z,6.15
2023-04-06T11:41:34.517Z,6.16
2023-04-06T11:44:40.184Z,6.14
2023-04-06T11:47:44.829Z,6.12
2023-04-06T11:50:51.670Z,6.11
2023-04-06T11:53:55.481Z,6.06
2023-04-06T11:56:58.691Z,6.04
2023-04-06T12:00:01.928Z,6.05
2023-04-06T12:03:05.102Z,6.09
2023-04-06T12:06:08.577Z,6.11
2023-04-06T12:09:11.736Z,6.11
2023-04-06T12:12:16.283Z,6.13
2023-04-06T12:15:19.572Z,6.11
2023-04-06T12:18:22.909Z,6.09
2023-04-06T12:21:34.655Z,6.09
2023-04-06T12:24:38.002Z,6.05
2023-04-06T12:27:41.563Z,6.01
2023-04-06T12:30:44.781Z,5.97
2023-04-06T12:33:49.828Z,5.95
2023-04-06T12:36:53.124Z,5.90
2023-04-06T12:39:56.283Z,5.86
2023-04-06T12:42:59.645Z,5.82
2023-04-06T12:46:02.831Z,5.78
2023-04-06T12:49:06.187Z,5.74
2023-04-06T12:52:09.746Z,5.70
2023-04-06T12:55:12.920Z,5.66
2023-04-06T12:58:17.738Z,5.63
2023-04-06T13:01:21.352Z,5.62
2023-04-06T13:04:24.540Z,5.60
2023-04-06T13:07:27.661Z,5.58
2023-04-06T13:10:31.111Z,5.55
2023-04-06T13:13:34.148Z,5.52
2023-04-06T13:16:38.540Z,5.48
2023-04-06T13:19:42.453Z,5.43
2023-04-06T13:22:45.552Z,5.41
2023-04-06T13:25:48.710Z,5.35
2023-04-06T13:28:51.879Z,5.32
2023-04-06T13:31:55.201Z,5.28
2023-04-06T13:34:58.642Z,5.29
2023-04-06T13:38:01.989Z,5.28
2023-04-06T13:41:05.466Z,5.28
2023-04-06T13:44:08.757Z,5.29
2023-04-06T13:47:13.454Z,5.31
2023-04-06T13:50:16.623Z,5.32
2023-04-06T13:53:19.747Z,5.32
2023-04-06T13:56:22.900Z,5.32
2023-04-06T13:59:26.268Z,5.30
2023-04-06T14:02:29.749Z,5.29
2023-04-06T14:05:34.105Z,5.26
2023-04-06T14:08:39.537Z,5.22
2023-04-06T14:11:42.654Z,5.15
2023-04-06T14:14:45.843Z,5.10
2023-04-06T14:17:49.236Z,5.05
2023-04-06T14:20:58.430Z,4.98
2023-04-06T14:24:02.812Z,4.90
2023-04-06T14:27:06.026Z,4.86
2023-04-06T14:30:09.890Z,4.85
2023-04-06T14:33:13.433Z,4.84
2023-04-06T14:36:16.566Z,4.85
2023-04-06T14:39:19.752Z,4.87
2023-04-06T14:42:22.926Z,4.88
2023-04-06T14:45:26.282Z,4.90
2023-04-06T14:48:29.757Z,4.90
2023-04-06T14:51:35.278Z,4.88
2023-04-06T14:54:38.301Z,4.87
2023-04-06T14:57:41.527Z,4.84
2023-04-06T15:00:44.719Z,4.82
2023-04-06T15:03:48.546Z,4.82
2023-04-06T15:06:51.908Z,4.82
2023-04-06T15:09:54.854Z,4.82
2023-04-06T15:12:57.912Z,4.81
2023-04-06T15:16:02.093Z,4.79
2023-04-06T15:19:05.256Z,4.76
2023-04-06T15:22:08.231Z,4.75
2023-04-06T15:25:11.638Z,4.73
2023-04-06T15:28:14.663Z,4.73
2023-04-06T15:31:36.034Z,4.72
2023-04-06T15:34:41.313Z,4.70
2023-04-06T15:37:44.309Z,4.69
2023-04-06T15:40:49.571Z,4.68
2023-04-06T15:43:53.882Z,4.68
2023-04-06T15:46:57.679Z,4.69
2023-04-06T15:50:01.000Z,4.71
2023-04-06T15:53:04.225Z,4.71
2023-04-06T15:56:11.113Z,4.72
2023-04-06T15:59:15.458Z,4.70
2023-04-06T16:02:20.301Z,4.68
2023-04-06T16:05:23.457Z,4.64
2023-04-06T16:08:26.650Z,4.59
2023-04-06T16:11:29.887Z,4.51
2023-04-06T16:14:33.543Z,4.42
2023-04-06T16:17:36.704Z,4.38
2023-04-06T16:20:40.723Z,4.33
2023-04-06T16:23:45.850Z,4.28
2023-04-06T16:26:49.663Z,4.25
2023-04-06T16:29:53.122Z,4.24
2023-04-06T16:32:58.024Z,4.23
2023-04-06T16:36:01.778Z,4.21
2023-04-06T16:39:05.077Z,4.21
2023-04-06T16:42:08.060Z,4.20
2023-04-06T16:45:11.895Z,4.18
2023-04-06T16:48:14.854Z,4.18
2023-04-06T16:51:18.908Z,4.16
2023-04-06T16:54:21.935Z,4.14
2023-04-06T16:57:29.498Z,4.14
2023-04-06T17:00:32.868Z,4.13
2023-04-06T17:03:36.142Z,4.14
2023-04-06T17:06:39.160Z,4.13
2023-04-06T17:09:42.644Z,4.12
2023-04-06T17:12:47.252Z,4.11
2023-04-06T17:15:50.421Z,4.09
2023-04-06T17:18:53.962Z,4.07
2023-04-06T17:21:57.209Z,4.05
2023-04-06T17:25:02.604Z,4.03
2023-04-06T17:28:05.911Z,4.00
2023-04-06T17:31:10.628Z,3.98
2023-04-06T17:34:13.869Z,3.96
2023-04-06T17:37:17.320Z,3.95
2023-04-06T17:40:20.824Z,3.94
2023-04-06T17:43:24.033Z,3.92
2023-04-06T17:46:27.330Z,3.92
2023-04-06T17:49:31.267Z,3.90
2023-04-06T17:52:34.292Z,3.89
2023-04-06T17:55:37.608Z,3.86
2023-04-06T17:58:41.065Z,3.85
2023-04-06T18:01:44.098Z,3.84
2023-04-06T18:04:47.681Z,3.84
2023-04-06T18:07:53.359Z,3.84
2023-04-06T18:10:56.424Z,3.83
2023-04-06T18:14:00.294Z,3.82
2023-04-06T18:17:03.624Z,3.82
2023-04-06T18:20:07.404Z,3.82
2023-04-06T18:23:10.336Z,3.81
2023-04-06T18:26:18.559Z,3.80
2023-04-06T18:29:21.942Z,3.80
2023-04-06T18:32:24.961Z,3.79
2023-04-06T18:35:27.975Z,3.79
2023-04-06T18:38:31.120Z,3.78
2023-04-06T18:41:34.955Z,3.77
2023-04-06T18:44:38.238Z,3.76
2023-04-06T18:47:41.298Z,3.74
2023-04-06T18:50:54.434Z,3.73
2023-04-06T18:53:58.246Z,3.71
2023-04-06T18:57:04.237Z,3.69
2023-04-06T19:00:08.431Z,3.67
2023-04-06T19:03:11.554Z,3.65
2023-04-06T19:06:14.659Z,3.65
2023-04-06T19:09:17.630Z,3.62
2023-04-06T19:12:20.628Z,3.60
2023-04-06T19:15:23.700Z,3.59
2023-04-06T19:18:27.106Z,3.60
2023-04-06T19:21:30.094Z,3.59
2023-04-06T19:24:33.284Z,3.60
2023-04-06T19:27:36.481Z,3.58
2023-04-06T19:30:41.267Z,3.56
2023-04-06T19:33:45.397Z,3.56
2023-04-06T19:36:48.425Z,3.54
2023-04-06T19:39:51.418Z,3.52
2023-04-06T19:42:54.424Z,3.51
2023-04-06T19:45:57.530Z,3.50
2023-04-06T19:49:01.476Z,3.50
2023-04-06T19:52:05.797Z,3.49
2023-04-06T19:55:13.367Z,3.48
2023-04-06T19:58:16.736Z,3.50
2023-04-06T20:01:19.805Z,3.49
2023-04-06T20:04:23.941Z,3.49
2023-04-06T20:07:27.144Z,3.50
2023-04-06T20:10:30.514Z,3.50
2023-04-06T20:13:34.472Z,3.51
2023-04-06T20:16:37.823Z,3.51
2023-04-06T20:19:40.924Z,3.51
2023-04-06T20:22:43.935Z,3.52
2023-04-06T20:25:47.162Z,3.53
2023-04-06T20:28:50.278Z,3.52
2023-04-06T20:31:53.289Z,3.52
2023-04-06T20:34:56.691Z,3.53
2023-04-06T20:37:59.735Z,3.54
2023-04-06T20:41:02.824Z,3.53
2023-04-06T20:44:06.291Z,3.52
2023-04-06T20:47:09.358Z,3.52
2023-04-06T20:50:12.530Z,3.52
2023-04-06T20:53:16.487Z,3.52
2023-04-06T20:56:21.869Z,3.53
2023-04-06T20:59:26.574Z,3.52
2023-04-06T21:02:29.692Z,3.51
2023-04-06T21:05:32.892Z,3.51
2023-04-06T21:08:36.369Z,3.50
2023-04-06T21:11:39.343Z,3.51
2023-04-06T21:14:42.507Z,3.51
2023-04-06T21:17:45.559Z,3.51
2023-04-06T21:20:48.729Z,3.50
2023-04-06T21:23:53.057Z,3.50
2023-04-06T21:26:56.052Z,3.51
2023-04-06T21:29:59.304Z,3.51
2023-04-06T21:33:03.684Z,3.51
2023-04-06T21:36:07.730Z,3.50
2023-04-06T21:39:10.906Z,3.49
2023-04-06T21:42:13.989Z,3.50
2023-04-06T21:45:17.073Z,3.50
2023-04-06T21:48:20.490Z,3.49
2023-04-06T21:51:24.310Z,3.50
2023-04-06T21:54:32.870Z,3.49
2023-04-06T21:57:36.376Z,3.50
2023-04-06T22:00:40.528Z,3.50
2023-04-06T22:03:44.227Z,3.49
2023-04-06T22:06:47.974Z,3.48
2023-04-06T22:09:53.709Z,3.48
2023-04-06T22:12:57.305Z,3.47
2023-04-06T22:16:00.457Z,3.48
2023-04-06T22:19:03.447Z,3.48
2023-04-06T22:22:06.491Z,3.47
2023-04-06T22:25:09.615Z,3.47
2023-04-06T22:28:12.950Z,3.47
2023-04-06T22:31:15.923Z,3.48
2023-04-06T22:34:19.194Z,3.47
2023-04-06T22:37:22.505Z,3.48
2023-04-06T22:40:25.510Z,3.49
2023-04-06T22:43:28.629Z,3.48
2023-04-06T22:46:31.624Z,3.49
2023-04-06T22:49:34.763Z,3.49
2023-04-06T22:52:37.836Z,3.50
2023-04-06T22:55:41.325Z,3.50
2023-04-06T22:58:44.302Z,3.51
2023-04-06T23:01:47.399Z,3.52
2023-04-06T23:04:50.417Z,3.51
2023-04-06T23:07:54.040Z,3.51
2023-04-06T23:10:56.994Z,3.52
2023-04-06T23:13:59.971Z,3.51
2023-04-06T23:17:03.494Z,3.51
2023-04-06T23:20:07.211Z,3.50
2023-04-06T23:23:10.553Z,3.50
2023-04-06T23:26:13.769Z,3.50
2023-04-06T23:29:16.760Z,3.50
2023-04-06T23:32:19.814Z,3.50
2023-04-06T23:35:22.830Z,3.49
2023-04-06T23:38:25.941Z,3.49
2023-04-06T23:41:29.140Z,3.49
2023-04-06T23:44:32.229Z,3.50
2023-04-06T23:47:35.310Z,3.49
2023-04-06T23:50:38.761Z,3.50
2023-04-06T23:53:41.929Z,3.49
2023-04-06T23:56:44.917Z,3.51
2023-04-06T23:59:48.070Z,3.50
